createdAt,value
2022-08-28T00:02:42.049Z,98330.75
2022-08-28T00:05:43.550Z,98329.94
2022-08-28T00:08:44.919Z,98331.59
2022-08-28T00:11:48.366Z,98330.88
2022-08-28T00:14:49.768Z,98327.44
2022-08-28T00:17:51.179Z,98320.47
2022-08-28T00:20:52.565Z,98325.63
2022-08-28T00:23:54.423Z,98322.19
2022-08-28T00:27:14.546Z,98326.03
2022-08-28T00:30:17.038Z,98320.16
2022-08-28T00:33:31.167Z,98320.25
2022-08-28T00:36:32.578Z,98324.00
2022-08-28T00:39:34.032Z,98328.28
2022-08-28T00:42:35.514Z,98323.19
2022-08-28T00:45:39.828Z,98319.88
2022-08-28T00:48:41.561Z,98323.16
2022-08-28T00:52:01.687Z,98319.81
2022-08-28T00:55:05.206Z,98318.94
2022-08-28T00:58:06.874Z,98323.19
2022-08-28T01:01:08.260Z,98317.50
2022-08-28T01:04:09.881Z,98315.81
2022-08-28T01:07:12.930Z,98319.25
2022-08-28T01:10:16.794Z,98325.25
2022-08-28T01:13:18.214Z,98328.69
2022-08-28T01:16:19.625Z,98324.22
2022-08-28T01:19:23.903Z,98322.69
2022-08-28T01:22:33.432Z,98336.81
2022-08-28T01:25:35.112Z,98332.44
2022-08-28T01:28:36.576Z,98316.81
2022-08-28T01:31:38.489Z,98323.91
2022-08-28T01:34:40.339Z,98324.03
2022-08-28T01:37:42.179Z,98329.22
2022-08-28T01:40:45.263Z,98330.78
2022-08-28T01:43:49.102Z,98325.41
2022-08-28T01:46:54.196Z,98334.28
2022-08-28T01:49:55.592Z,98331.84
2022-08-28T01:52:57.079Z,98325.75
2022-08-28T01:55:58.712Z,98326.53
2022-08-28T01:59:01.390Z,98334.56
2022-08-28T02:02:03.752Z,98338.84
2022-08-28T02:05:05.418Z,98338.91
2022-08-28T02:08:07.037Z,98329.31
2022-08-28T02:11:08.858Z,98334.38
2022-08-28T02:14:10.635Z,98327.34
2022-08-28T02:17:12.117Z,98335.13
2022-08-28T02:20:13.487Z,98332.53
2022-08-28T02:23:14.856Z,98327.41
2022-08-28T02:26:16.211Z,98325.06
2022-08-28T02:29:18.607Z,98325.16
2022-08-28T02:32:19.974Z,98321.66
2022-08-28T02:35:23.100Z,98319.16
2022-08-28T02:38:24.464Z,98317.31
2022-08-28T02:41:25.991Z,98322.53
2022-08-28T02:44:27.390Z,98322.59
2022-08-28T02:47:29.060Z,98312.38
2022-08-28T02:50:31.091Z,98321.19
2022-08-28T02:53:32.631Z,98318.72
2022-08-28T02:56:34.364Z,98320.25
2022-08-28T02:59:36.217Z,98322.88
2022-08-28T03:02:38.002Z,98325.41
2022-08-28T03:05:39.486Z,98323.09
2022-08-28T03:08:41.623Z,98319.72
2022-08-28T03:11:43.043Z,98319.72
2022-08-28T03:14:44.411Z,98323.09
2022-08-28T03:17:45.778Z,98323.13
2022-08-28T03:20:49.429Z,98324.91
2022-08-28T03:23:50.840Z,98324.38
2022-08-28T03:26:52.239Z,98325.91
2022-08-28T03:29:53.624Z,98322.47
2022-08-28T03:32:55.010Z,98324.91
2022-08-28T03:35:56.445Z,98323.88
2022-08-28T03:38:58.644Z,98314.25
2022-08-28T03:42:00.961Z,98321.25
2022-08-28T03:45:02.659Z,98325.66
2022-08-28T03:48:04.692Z,98330.09
2022-08-28T03:51:06.833Z,98332.06
2022-08-28T03:54:08.293Z,98333.03
2022-08-28T03:57:09.673Z,98337.50
2022-08-28T04:00:11.635Z,98329.56
2022-08-28T04:03:13.784Z,98331.34
2022-08-28T04:06:15.890Z,98333.22
2022-08-28T04:09:17.272Z,98327.13
2022-08-28T04:12:18.641Z,98333.97
2022-08-28T04:15:21.446Z,98316.47
2022-08-28T04:18:22.852Z,98324.38
2022-08-28T04:21:27.189Z,98336.59
2022-08-28T04:24:28.687Z,98325.31
2022-08-28T04:27:30.160Z,98332.41
2022-08-28T04:30:31.559Z,98323.13
2022-08-28T04:33:32.968Z,98332.84
2022-08-28T04:36:34.324Z,98335.41
2022-08-28T04:39:35.743Z,98333.53
2022-08-28T04:42:37.568Z,98334.38
2022-08-28T04:45:43.334Z,98341.41
2022-08-28T04:48:44.844Z,98337.91
2022-08-28T04:51:46.989Z,98344.91
2022-08-28T04:54:49.263Z,98346.56
2022-08-28T04:57:50.615Z,98340.53
2022-08-28T05:00:52.241Z,98331.13
2022-08-28T05:03:57.740Z,98332.03
2022-08-28T05:06:59.153Z,98338.09
2022-08-28T05:10:00.534Z,98337.94
2022-08-28T05:13:01.911Z,98337.00
2022-08-28T05:16:03.493Z,98336.94
2022-08-28T05:19:04.869Z,98338.66
2022-08-28T05:22:06.326Z,98343.13
2022-08-28T05:25:07.971Z,98336.25
2022-08-28T05:28:12.299Z,98335.41
2022-08-28T05:31:16.105Z,98345.81
2022-08-28T05:34:17.528Z,98335.47
2022-08-28T05:37:19.780Z,98335.28
2022-08-28T05:40:22.248Z,98338.78
2022-08-28T05:43:24.810Z,98345.63
2022-08-28T05:46:28.096Z,98343.91
2022-08-28T05:49:29.470Z,98343.81
2022-08-28T05:52:30.838Z,98343.63
2022-08-28T05:55:32.234Z,98344.38
2022-08-28T05:58:34.732Z,98350.34
2022-08-28T06:01:39.084Z,98354.69
2022-08-28T06:04:40.626Z,98360.69
2022-08-28T06:07:42.023Z,98356.09
2022-08-28T06:10:44.648Z,98360.41
2022-08-28T06:13:48.260Z,98372.63
2022-08-28T06:16:53.483Z,98362.78
2022-08-28T06:19:54.913Z,98361.91
2022-08-28T06:22:56.254Z,98367.97
2022-08-28T06:25:58.223Z,98367.56
2022-08-28T06:29:00.850Z,98371.78
2022-08-28T06:32:04.365Z,98370.81
2022-08-28T06:35:05.873Z,98370.47
2022-08-28T06:38:07.491Z,98365.88
2022-08-28T06:41:11.536Z,98370.91
2022-08-28T06:44:19.742Z,98382.97
2022-08-28T06:47:21.178Z,98381.97
2022-08-28T06:50:22.597Z,98381.56
2022-08-28T06:53:24.729Z,98389.31
2022-08-28T06:56:27.173Z,98388.97
2022-08-28T06:59:28.779Z,98391.38
2022-08-28T07:02:30.183Z,98393.75
2022-08-28T07:05:32.168Z,98399.50
2022-08-28T07:08:33.662Z,98400.88
2022-08-28T07:11:35.296Z,98410.09
2022-08-28T07:14:38.103Z,98409.84
2022-08-28T07:17:39.494Z,98411.69
2022-08-28T07:20:40.871Z,98427.44
2022-08-28T07:23:42.447Z,98427.00
2022-08-28T07:26:44.363Z,98431.84
2022-08-28T07:29:45.761Z,98434.50
2022-08-28T07:32:50.007Z,98435.97
2022-08-28T07:35:51.430Z,98448.47
2022-08-28T07:38:53.342Z,98440.91
2022-08-28T07:41:55.198Z,98444.88
2022-08-28T07:44:59.166Z,98451.66
2022-08-28T07:48:00.541Z,98458.34
2022-08-28T07:51:05.320Z,98470.19
2022-08-28T07:54:06.871Z,98469.06
2022-08-28T07:57:12.624Z,98475.31
2022-08-28T08:00:14.096Z,98475.13
2022-08-28T08:03:15.581Z,98478.28
2022-08-28T08:06:17.476Z,98484.84
2022-08-28T08:09:19.253Z,98486.69
2022-08-28T08:12:20.640Z,98492.50
2022-08-28T08:15:22.036Z,98499.91
2022-08-28T08:18:24.152Z,98509.13
2022-08-28T08:21:30.009Z,98512.34
2022-08-28T08:24:31.953Z,98516.31
2022-08-28T08:27:33.349Z,98522.22
2022-08-28T08:30:34.741Z,98518.31
2022-08-28T08:33:36.359Z,98522.31
2022-08-28T08:36:38.071Z,98529.50
2022-08-28T08:39:39.634Z,98541.84
2022-08-28T08:42:43.751Z,98538.00
2022-08-28T08:45:45.368Z,98532.47
2022-08-28T08:48:46.775Z,98544.50
2022-08-28T08:51:50.434Z,98540.56
2022-08-28T08:55:01.702Z,98548.97
2022-08-28T08:58:18.491Z,98552.31
2022-08-28T09:01:29.510Z,98562.53
2022-08-28T09:04:34.467Z,98557.91
2022-08-28T09:07:44.663Z,98562.03
2022-08-28T09:10:48.322Z,98562.72
2022-08-28T09:13:55.051Z,98570.44
2022-08-28T09:16:56.448Z,98572.75
2022-08-28T09:19:58.452Z,98567.59
2022-08-28T09:22:59.874Z,98570.38
2022-08-28T09:26:02.485Z,98571.94
2022-08-28T09:29:05.353Z,98585.41
2022-08-28T09:32:15.698Z,98591.78
2022-08-28T09:35:24.939Z,98588.84
2022-08-28T09:38:27.671Z,98585.81
2022-08-28T09:41:48.055Z,98585.25
2022-08-28T09:44:56.456Z,98588.25
2022-08-28T09:47:57.996Z,98593.19
2022-08-28T09:51:28.682Z,98595.41
2022-08-28T09:54:34.613Z,98589.97
2022-08-28T09:57:35.972Z,98600.72
2022-08-28T10:00:38.191Z,98594.63
2022-08-28T10:03:43.294Z,98594.94
2022-08-28T10:07:04.925Z,98602.06
2022-08-28T10:10:17.481Z,98603.91
2022-08-28T10:13:19.288Z,98608.97
2022-08-28T10:16:28.907Z,98600.88
2022-08-28T10:19:58.237Z,98603.59
2022-08-28T10:23:02.957Z,98602.56
2022-08-28T10:26:04.288Z,98605.22
2022-08-28T10:29:11.806Z,98601.44
2022-08-28T10:32:21.528Z,98599.06
2022-08-28T10:35:25.268Z,98597.25
2022-08-28T10:38:32.740Z,98597.00
2022-08-28T10:41:37.568Z,98596.41
2022-08-28T10:44:40.836Z,98594.41
2022-08-28T10:47:52.480Z,98592.00
2022-08-28T10:50:55.181Z,98586.91
2022-08-28T10:53:58.361Z,98591.47
2022-08-28T10:57:06.072Z,98592.56
2022-08-28T11:00:11.109Z,98580.34
2022-08-28T11:03:32.926Z,98587.25
2022-08-28T11:06:39.824Z,98584.84
2022-08-28T11:09:43.452Z,98583.97
2022-08-28T11:12:44.881Z,98584.09
2022-08-28T11:15:48.395Z,98586.50
2022-08-28T11:19:01.860Z,98584.09
2022-08-28T11:22:03.679Z,98588.22
2022-08-28T11:25:09.963Z,98576.34
2022-08-28T11:28:12.048Z,98570.34
2022-08-28T11:31:19.229Z,98568.59
2022-08-28T11:37:39.790Z,98556.09
2022-08-28T11:40:44.207Z,98561.34
2022-08-28T11:43:45.787Z,98567.53
2022-08-28T11:46:50.852Z,98571.91
2022-08-28T11:49:52.852Z,98574.69
2022-08-28T11:52:57.179Z,98573.66
2022-08-28T11:56:01.554Z,98578.84
2022-08-28T11:59:07.964Z,98589.81
2022-08-28T12:02:44.171Z,98586.00
2022-08-28T12:05:49.714Z,98580.53
2022-08-28T12:08:51.396Z,98572.81
2022-08-28T12:11:53.659Z,98562.22
2022-08-28T12:14:55.044Z,98558.03
2022-08-28T12:18:06.646Z,98560.88
2022-08-28T12:21:12.776Z,98564.03
2022-08-28T12:24:23.292Z,98549.78
2022-08-28T12:27:24.783Z,98556.34
2022-08-28T12:30:30.354Z,98545.00
2022-08-28T12:33:31.977Z,98546.53
2022-08-28T12:36:33.375Z,98552.41
2022-08-28T12:39:34.794Z,98565.63
2022-08-28T12:42:37.883Z,98556.00
2022-08-28T12:45:39.343Z,98550.09
2022-08-28T12:48:53.955Z,98558.78
2022-08-28T12:52:09.121Z,98560.44
2022-08-28T12:55:10.560Z,98555.22
2022-08-28T12:58:13.027Z,98556.81
2022-08-28T13:01:15.609Z,98564.72
2022-08-28T13:04:27.256Z,98557.72
2022-08-28T13:07:29.607Z,98550.41
2022-08-28T13:10:35.071Z,98536.88
2022-08-28T13:13:36.729Z,98540.72
2022-08-28T13:16:39.507Z,98541.03
2022-08-28T13:19:41.026Z,98542.06
2022-08-28T13:22:44.999Z,98533.34
2022-08-28T13:26:02.165Z,98535.88
2022-08-28T13:29:05.197Z,98530.03
2022-08-28T13:32:07.588Z,98529.34
2022-08-28T13:35:10.911Z,98534.06
2022-08-28T13:38:12.991Z,98525.63
2022-08-28T13:41:14.431Z,98525.72
2022-08-28T13:44:38.838Z,98515.63
2022-08-28T13:47:40.222Z,98520.09
2022-08-28T13:50:42.424Z,98520.53
2022-08-28T13:53:47.067Z,98521.22
2022-08-28T13:56:48.462Z,98518.97
2022-08-28T13:59:53.618Z,98511.13
2022-08-28T14:03:15.627Z,98511.53
2022-08-28T14:06:17.314Z,98516.09
2022-08-28T14:09:18.678Z,98504.91
2022-08-28T14:12:22.593Z,98504.28
2022-08-28T14:15:32.806Z,98500.91
2022-08-28T14:18:34.657Z,98501.72
2022-08-28T14:21:36.468Z,98503.84
2022-08-28T14:24:37.842Z,98494.00
2022-08-28T14:27:39.250Z,98495.28
2022-08-28T14:30:44.009Z,98494.41
2022-08-28T14:33:46.058Z,98493.53
2022-08-28T14:36:50.885Z,98499.34
2022-08-28T14:39:52.256Z,98487.53
2022-08-28T14:42:53.632Z,98491.13
2022-08-28T14:45:55.059Z,98494.34
2022-08-28T14:48:56.973Z,98498.22
2022-08-28T14:51:58.613Z,98495.78
2022-08-28T14:55:00.032Z,98486.72
2022-08-28T14:58:01.387Z,98486.34
2022-08-28T15:01:02.987Z,98484.66
2022-08-28T15:04:04.843Z,98477.63
2022-08-28T15:07:07.417Z,98478.66
2022-08-28T15:10:11.574Z,98481.03
2022-08-28T15:13:13.240Z,98478.97
2022-08-28T15:16:20.639Z,98472.72
2022-08-28T15:19:23.346Z,98477.81
2022-08-28T15:22:27.446Z,98475.97
2022-08-28T15:25:29.012Z,98476.53
2022-08-28T15:28:30.390Z,98471.63
2022-08-28T15:31:32.424Z,98467.16
2022-08-28T15:34:33.867Z,98464.59
2022-08-28T15:37:35.219Z,98464.38
2022-08-28T15:40:55.356Z,98462.53
2022-08-28T15:44:00.147Z,98461.78
2022-08-28T15:47:02.124Z,98457.94
2022-08-28T15:50:03.562Z,98461.16
2022-08-28T15:53:06.184Z,98452.09
2022-08-28T15:56:08.448Z,98453.47
2022-08-28T15:59:10.634Z,98453.00
2022-08-28T16:02:12.435Z,98459.09
2022-08-28T16:05:13.972Z,98450.19
2022-08-28T16:08:15.364Z,98466.59
2022-08-28T16:11:17.431Z,98453.31
2022-08-28T16:14:21.042Z,98451.31
2022-08-28T16:17:22.872Z,98457.69
2022-08-28T16:20:25.288Z,98453.50
2022-08-28T16:23:26.693Z,98462.69
2022-08-28T16:26:28.039Z,98470.63
2022-08-28T16:29:29.586Z,98468.00
2022-08-28T16:32:31.447Z,98470.88
2022-08-28T16:35:33.256Z,98480.19
2022-08-28T16:38:39.113Z,98474.03
2022-08-28T16:41:41.520Z,98469.31
2022-08-28T16:44:42.894Z,98470.53
2022-08-28T16:47:44.268Z,98477.44
2022-08-28T16:50:45.651Z,98476.56
2022-08-28T16:53:47.094Z,98472.56
2022-08-28T16:56:48.555Z,98474.06
2022-08-28T16:59:53.014Z,98477.03
2022-08-28T17:02:54.964Z,98465.53
2022-08-28T17:05:56.381Z,98475.38
2022-08-28T17:08:58.061Z,98467.41
2022-08-28T17:11:59.544Z,98475.75
2022-08-28T17:15:01.401Z,98475.66
2022-08-28T17:18:02.768Z,98468.72
2022-08-28T17:21:23.012Z,98480.19
2022-08-28T17:24:24.654Z,98478.88
2022-08-28T17:27:26.167Z,98489.44
2022-08-28T17:30:27.615Z,98484.28
2022-08-28T17:33:28.955Z,98492.28
2022-08-28T17:36:33.019Z,98500.81
2022-08-28T17:39:35.998Z,98500.75
2022-08-28T17:42:37.439Z,98509.78
2022-08-28T17:45:39.406Z,98502.22
2022-08-28T17:48:40.858Z,98512.13
2022-08-28T17:51:49.333Z,98513.16
2022-08-28T17:54:51.479Z,98512.94
2022-08-28T17:57:52.862Z,98513.94
2022-08-28T18:00:54.278Z,98518.19
2022-08-28T18:03:55.702Z,98517.63
2022-08-28T18:06:57.051Z,98528.22
2022-08-28T18:09:58.434Z,98524.59
2022-08-28T18:13:00.568Z,98530.22
2022-08-28T18:16:02.060Z,98527.22
2022-08-28T18:19:05.013Z,98539.72
2022-08-28T18:22:07.882Z,98540.78
2022-08-28T18:25:29.386Z,98543.69
2022-08-28T18:28:32.282Z,98541.84
2022-08-28T18:31:33.768Z,98540.88
2022-08-28T18:34:35.282Z,98548.91
2022-08-28T18:37:36.658Z,98550.31
2022-08-28T18:40:38.232Z,98556.16
2022-08-28T18:43:39.649Z,98559.13
2022-08-28T18:46:41.549Z,98565.19
2022-08-28T18:49:43.058Z,98562.06
2022-08-28T18:52:44.495Z,98561.75
2022-08-28T18:55:45.937Z,98572.88
2022-08-28T18:58:47.835Z,98572.59
2022-08-28T19:01:49.405Z,98567.34
2022-08-28T19:04:50.879Z,98568.00
2022-08-28T19:07:52.293Z,98576.31
2022-08-28T19:10:54.050Z,98574.00
2022-08-28T19:13:55.455Z,98579.06
2022-08-28T19:16:57.290Z,98583.53
2022-08-28T19:19:58.849Z,98576.00
2022-08-28T19:23:00.225Z,98583.00
2022-08-28T19:26:01.654Z,98591.31
2022-08-28T19:29:03.237Z,98587.97
2022-08-28T19:32:07.318Z,98589.06
2022-08-28T19:35:08.889Z,98584.28
2022-08-28T19:38:10.452Z,98588.97
2022-08-28T19:41:12.811Z,98591.50
2022-08-28T19:44:14.693Z,98593.47
2022-08-28T19:47:16.223Z,98592.06
2022-08-28T19:50:17.765Z,98594.19
2022-08-28T19:53:19.529Z,98596.38
2022-08-28T19:56:25.155Z,98609.25
2022-08-28T19:59:27.259Z,98616.59
2022-08-28T20:02:29.425Z,98608.03
2022-08-28T20:05:30.884Z,98608.44
2022-08-28T20:08:33.549Z,98608.25
2022-08-28T20:11:34.898Z,98615.38
2022-08-28T20:14:38.770Z,98618.88
2022-08-28T20:17:43.850Z,98618.41
2022-08-28T20:20:51.544Z,98616.38
2022-08-28T20:23:52.998Z,98624.56
2022-08-28T20:26:54.389Z,98622.09
2022-08-28T20:29:56.143Z,98623.88
2022-08-28T20:32:57.598Z,98621.47
2022-08-28T20:36:00.195Z,98616.97
2022-08-28T20:39:04.503Z,98623.13
2022-08-28T20:42:06.578Z,98623.09
2022-08-28T20:45:08.926Z,98625.88
2022-08-28T20:48:10.319Z,98625.03
2022-08-28T20:51:11.963Z,98633.13
2022-08-28T20:54:13.418Z,98632.06
2022-08-28T20:57:16.017Z,98629.59
2022-08-28T21:00:18.413Z,98625.75
2022-08-28T21:03:19.852Z,98632.72
2022-08-28T21:06:26.666Z,98625.81
2022-08-28T21:09:35.858Z,98617.91
2022-08-28T21:12:49.624Z,98630.81
2022-08-28T21:15:50.997Z,98627.41
2022-08-28T21:19:14.808Z,98630.81
2022-08-28T21:22:13.727Z,98629.44
2022-08-28T21:25:16.993Z,98629.63
2022-08-28T21:28:18.366Z,98626.81
2022-08-28T21:31:20.755Z,98640.13
2022-08-28T21:34:22.351Z,98640.47
2022-08-28T21:37:23.784Z,98644.16
2022-08-28T21:40:25.186Z,98646.03
2022-08-28T21:43:26.552Z,98640.00
2022-08-28T21:46:33.329Z,98639.59
2022-08-28T21:49:35.277Z,98632.13
2022-08-28T21:52:38.188Z,98634.63
2022-08-28T21:55:39.875Z,98637.66
2022-08-28T21:58:41.398Z,98631.75
2022-08-28T22:01:42.847Z,98623.44
2022-08-28T22:04:44.251Z,98620.97
2022-08-28T22:07:45.594Z,98628.91
2022-08-28T22:10:47.050Z,98625.47
2022-08-28T22:13:48.466Z,98621.03
2022-08-28T22:16:49.872Z,98623.06
2022-08-28T22:19:51.375Z,98622.31
2022-08-28T22:23:10.990Z,98625.00
2022-08-28T22:26:17.657Z,98620.03
2022-08-28T22:29:19.036Z,98625.75
2022-08-28T22:32:25.438Z,98624.03
2022-08-28T22:35:27.121Z,98629.53
2022-08-28T22:38:29.425Z,98624.56
2022-08-28T22:41:31.355Z,98625.00
2022-08-28T22:44:32.740Z,98625.63
2022-08-28T22:47:34.117Z,98620.41
2022-08-28T22:50:35.487Z,98619.44
2022-08-28T22:53:36.843Z,98617.91
2022-08-28T22:56:38.193Z,98612.91
2022-08-28T22:59:39.570Z,98615.44
2022-08-28T23:02:41.039Z,98623.47
2022-08-28T23:05:42.613Z,98624.47
2022-08-28T23:08:44.008Z,98617.22
2022-08-28T23:11:45.362Z,98624.59
2022-08-28T23:14:48.733Z,98621.84
2022-08-28T23:17:50.344Z,98625.31
2022-08-28T23:20:52.395Z,98630.84
2022-08-28T23:23:53.801Z,98628.59
2022-08-28T23:26:55.184Z,98619.06
2022-08-28T23:29:56.635Z,98621.81
2022-08-28T23:32:58.045Z,98618.56
2022-08-28T23:35:59.639Z,98613.31
2022-08-28T23:39:01.288Z,98608.88
2022-08-28T23:42:02.663Z,98610.47
2022-08-28T23:45:05.214Z,98614.22
2022-08-28T23:48:06.691Z,98599.31
2022-08-28T23:51:09.460Z,98609.00
2022-08-28T23:54:11.099Z,98611.03
2022-08-28T23:57:12.453Z,98603.16
